Time;durP1;ratioP1;P1;durP2;ratioP2;P2;SDS_P1;SDS_P2;PMS_P1;PMS_P2;Temp;Humidity;BMP_temperature;BMP_pressure;BME280_temperature;BME280_humidity;BME280_pressure;Samples;Min_cycle;Max_cycle;Signal;HPM_P1;HPM_P2
2021/03/11 00:02:29;;;;;;;33.55;21.85;;;;;;;;;;5035512;28;20057;-63
2021/03/11 00:05:14;;;;;;;28.63;19.52;;;;;;;;;;5033798;28;20488;-63
2021/03/11 00:07:59;;;;;;;26.38;20.05;;;;;;;;;;5035445;28;20057;-63
2021/03/11 00:10:45;;;;;;;28.05;19.05;;;;;;;;;;5023160;28;20183;-63
2021/03/11 00:13:30;;;;;;;25.52;18.50;;;;;;;;;;5015316;28;20046;-63
2021/03/11 00:16:15;;;;;;;22.92;17.92;;;;;;;;;;5015392;28;20046;-63
2021/03/11 00:19:01;;;;;;;24.45;18.15;;;;;;;;;;5015706;28;20041;-64
2021/03/11 00:21:46;;;;;;;21.63;17.23;;;;;;;;;;5034774;28;20045;-63
2021/03/11 00:24:31;;;;;;;22.80;17.20;;;;;;;;;;5034926;28;20053;-63
2021/03/11 00:27:17;;;;;;;23.67;17.58;;;;;;;;;;5036057;28;20038;-63
2021/03/11 00:30:02;;;;;;;26.60;18.30;;;;;;;;;;5054455;28;20037;-63
2021/03/11 00:32:48;;;;;;;25.48;17.92;;;;;;;;;;5054787;28;20041;-63
2021/03/11 00:35:33;;;;;;;26.27;18.55;;;;;;;;;;5014893;28;20045;-62
2021/03/11 00:38:19;;;;;;;25.30;17.60;;;;;;;;;;5064224;23;20049;-65
2021/03/11 00:41:04;;;;;;;26.63;19.20;;;;;;;;;;5054764;28;20059;-65
2021/03/11 00:43:49;;;;;;;28.05;18.98;;;;;;;;;;5065466;28;20087;-65
2021/03/11 00:46:35;;;;;;;29.10;20.08;;;;;;;;;;5067524;28;20052;-61
2021/03/11 00:49:20;;;;;;;26.73;18.77;;;;;;;;;;5054661;28;20804;-61
2021/03/11 00:52:05;;;;;;;30.13;19.42;;;;;;;;;;5055406;28;20056;-61
2021/03/11 00:54:51;;;;;;;28.02;19.08;;;;;;;;;;5053450;28;20502;-62
2021/03/11 00:57:38;;;;;;;26.20;18.98;;;;;;;;;;5053500;28;20128;-62
2021/03/11 01:00:24;;;;;;;28.55;18.15;;;;;;;;;;5053332;28;20095;-62
2021/03/11 01:03:22;;;;;;;28.23;18.10;;;;;;;;;;5058026;28;20056;-62
2021/03/11 01:06:13;;;;;;;24.98;19.23;;;;;;;;;;5073349;28;20062;-62
2021/03/11 01:09:01;;;;;;;23.25;17.20;;;;;;;;;;5073250;28;20051;-62
2021/03/11 01:11:46;;;;;;;25.88;17.77;;;;;;;;;;5074112;28;20052;-62
2021/03/11 01:14:32;;;;;;;24.70;17.60;;;;;;;;;;5062074;28;20132;-62
2021/03/11 01:17:17;;;;;;;26.13;18.75;;;;;;;;;;5053941;28;20045;-61
2021/03/11 01:20:05;;;;;;;22.40;17.05;;;;;;;;;;5053926;28;20542;-61
2021/03/11 01:22:50;;;;;;;23.30;17.52;;;;;;;;;;5058170;28;20106;-62
2021/03/11 01:25:35;;;;;;;24.83;18.15;;;;;;;;;;5056054;28;20053;-61
2021/03/11 01:28:21;;;;;;;25.73;18.75;;;;;;;;;;5053742;28;20048;-61
2021/03/11 01:31:06;;;;;;;26.08;18.35;;;;;;;;;;5053951;28;20045;-62
2021/03/11 01:33:51;;;;;;;31.52;19.95;;;;;;;;;;5053844;28;20056;-62
2021/03/11 01:36:37;;;;;;;28.05;20.50;;;;;;;;;;5073334;28;20052;-61
2021/03/11 01:39:22;;;;;;;28.73;19.63;;;;;;;;;;5073576;28;20051;-61
2021/03/11 01:42:08;;;;;;;28.73;19.67;;;;;;;;;;5073620;28;20055;-61
2021/03/11 01:44:54;;;;;;;29.95;20.98;;;;;;;;;;5066992;28;20412;-61
2021/03/11 01:47:39;;;;;;;29.85;20.27;;;;;;;;;;5053556;28;20406;-61
2021/03/11 01:50:25;;;;;;;29.25;19.73;;;;;;;;;;5053210;28;20445;-61
2021/03/11 01:53:10;;;;;;;30.17;20.17;;;;;;;;;;5052370;28;20553;-61
2021/03/11 01:55:55;;;;;;;33.47;21.67;;;;;;;;;;5077375;28;20044;-62
2021/03/11 01:58:41;;;;;;;29.60;20.70;;;;;;;;;;5073254;28;20049;-62
2021/03/11 02:01:26;;;;;;;36.60;22.73;;;;;;;;;;5072087;28;20049;-63
2021/03/11 02:04:11;;;;;;;30.23;20.65;;;;;;;;;;5072799;28;20041;-63
2021/03/11 02:06:56;;;;;;;27.27;19.55;;;;;;;;;;5055764;28;20045;-63
2021/03/11 02:09:42;;;;;;;30.70;21.25;;;;;;;;;;5061618;28;20595;-63
2021/03/11 02:12:46;;;;;;;31.73;19.48;;;;;;;;;;5072906;28;20409;-63
2021/03/11 02:15:32;;;;;;;30.85;19.98;;;;;;;;;;5069904;28;20411;-63
2021/03/11 02:18:19;;;;;;;34.10;19.13;;;;;;;;;;5051819;28;20048;-63
2021/03/11 02:21:05;;;;;;;29.08;18.83;;;;;;;;;;5065901;28;20053;-63
2021/03/11 02:24:22;;;;;;;26.25;18.30;;;;;;;;;;5065810;28;20049;-63
2021/03/11 02:27:17;;;;;;;25.13;17.92;;;;;;;;;;5048470;28;20063;-63
2021/03/11 02:30:02;;;;;;;22.52;16.63;;;;;;;;;;5072630;28;20059;-63
2021/03/11 02:32:47;;;;;;;28.60;18.58;;;;;;;;;;5085746;28;20048;-63
2021/03/11 02:35:32;;;;;;;28.88;19.80;;;;;;;;;;5085630;28;20044;-63
2021/03/11 02:38:17;;;;;;;25.73;17.92;;;;;;;;;;5071994;28;20090;-63
2021/03/11 02:41:03;;;;;;;24.70;16.30;;;;;;;;;;5072440;28;20048;-62
2021/03/11 02:43:48;;;;;;;28.17;17.90;;;;;;;;;;5072325;28;20060;-62
2021/03/11 02:46:34;;;;;;;25.92;16.58;;;;;;;;;;5082596;28;20525;-63
2021/03/11 02:49:21;;;;;;;26.75;17.23;;;;;;;;;;5065330;28;20045;-63
2021/03/11 02:52:07;;;;;;;26.00;17.02;;;;;;;;;;5065196;28;20045;-62
2021/03/11 02:54:52;;;;;;;24.02;16.38;;;;;;;;;;5052128;28;20183;-62
2021/03/11 02:57:37;;;;;;;27.15;17.08;;;;;;;;;;5060253;28;20051;-62
2021/03/11 03:00:22;;;;;;;23.63;16.00;;;;;;;;;;5085251;28;20076;-62
2021/03/11 03:03:12;;;;;;;21.67;14.90;;;;;;;;;;5072236;28;20057;-62
2021/03/11 03:05:57;;;;;;;22.83;15.10;;;;;;;;;;5071935;28;20052;-62
2021/03/11 03:08:43;;;;;;;22.30;15.00;;;;;;;;;;5070373;28;20045;-62
2021/03/11 03:11:28;;;;;;;22.58;15.88;;;;;;;;;;5065139;28;20057;-62
2021/03/11 03:14:13;;;;;;;23.35;16.13;;;;;;;;;;5064890;28;20465;-62
2021/03/11 03:16:59;;;;;;;21.25;15.52;;;;;;;;;;5051833;28;20056;-62
2021/03/11 03:19:44;;;;;;;19.38;13.70;;;;;;;;;;5085009;28;20044;-62
2021/03/11 03:22:29;;;;;;;17.17;13.57;;;;;;;;;;5071994;28;20055;-62
2021/03/11 03:25:15;;;;;;;18.20;13.57;;;;;;;;;;5071564;28;20483;-62
2021/03/11 03:28:01;;;;;;;17.23;12.65;;;;;;;;;;5067913;28;20064;-63
2021/03/11 03:30:46;;;;;;;18.80;13.48;;;;;;;;;;5056034;28;20049;-62
2021/03/11 03:33:31;;;;;;;16.52;12.32;;;;;;;;;;5055912;28;20044;-62
2021/03/11 03:36:17;;;;;;;15.48;12.77;;;;;;;;;;5055712;28;20055;-63
2021/03/11 03:39:02;;;;;;;18.70;13.20;;;;;;;;;;5064154;28;20053;-62
2021/03/11 03:41:48;;;;;;;17.27;12.57;;;;;;;;;;5088970;28;20045;-61
2021/03/11 03:44:37;;;;;;;19.63;14.02;;;;;;;;;;5087881;28;20040;-61
2021/03/11 03:47:22;;;;;;;17.45;13.55;;;;;;;;;;5088952;28;20049;-61
2021/03/11 03:50:08;;;;;;;18.92;12.85;;;;;;;;;;5074882;28;20048;-61
2021/03/11 03:52:53;;;;;;;20.33;13.80;;;;;;;;;;5088752;28;20037;-61
2021/03/11 03:55:38;;;;;;;16.52;12.90;;;;;;;;;;5087328;28;20040;-61
2021/03/11 03:58:24;;;;;;;19.85;14.38;;;;;;;;;;5088059;28;20122;-62
2021/03/11 04:01:09;;;;;;;17.85;13.35;;;;;;;;;;5074280;28;20048;-62
2021/03/11 04:03:54;;;;;;;18.05;13.43;;;;;;;;;;5088703;28;20129;-62
2021/03/11 04:06:40;;;;;;;16.98;13.63;;;;;;;;;;5088399;28;20063;-63
2021/03/11 04:09:25;;;;;;;18.00;12.88;;;;;;;;;;5088070;28;20499;-62
2021/03/11 04:12:10;;;;;;;16.15;12.40;;;;;;;;;;5064773;28;20071;-62
2021/03/11 04:14:56;;;;;;;14.40;11.98;;;;;;;;;;5067902;28;20040;-62
2021/03/11 04:17:43;;;;;;;17.20;12.35;;;;;;;;;;5055276;28;20438;-62
2021/03/11 04:20:28;;;;;;;14.77;11.27;;;;;;;;;;5076774;28;20054;-62
2021/03/11 04:23:13;;;;;;;17.58;12.45;;;;;;;;;;5088266;28;20053;-62
2021/03/11 04:25:59;;;;;;;15.77;11.68;;;;;;;;;;5087851;28;20141;-62
2021/03/11 04:28:48;;;;;;;15.55;12.15;;;;;;;;;;5087612;28;20646;-61
2021/03/11 04:31:33;;;;;;;15.73;12.18;;;;;;;;;;5072782;28;20053;-61
2021/03/11 04:34:18;;;;;;;16.85;12.27;;;;;;;;;;5067930;28;20049;-61
2021/03/11 04:37:04;;;;;;;13.38;10.73;;;;;;;;;;5067710;28;20069;-61
2021/03/11 04:39:49;;;;;;;15.18;11.45;;;;;;;;;;5066969;28;20051;-61
2021/03/11 04:42:35;;;;;;;12.95;10.80;;;;;;;;;;5086442;28;20053;-61
2021/03/11 04:45:21;;;;;;;13.95;11.25;;;;;;;;;;5071760;28;20037;-61
2021/03/11 04:48:06;;;;;;;13.70;11.50;;;;;;;;;;5074484;28;20040;-61
2021/03/11 04:50:52;;;;;;;11.57;9.88;;;;;;;;;;5070006;28;20155;-61
2021/03/11 04:53:37;;;;;;;12.25;10.88;;;;;;;;;;5054477;28;20099;-61
2021/03/11 04:56:24;;;;;;;12.02;9.23;;;;;;;;;;5067127;28;20060;-61
2021/03/11 04:59:12;;;;;;;10.50;9.35;;;;;;;;;;5067171;28;20045;-61
2021/03/11 05:01:58;;;;;;;13.02;10.18;;;;;;;;;;5063561;28;20052;-61
2021/03/11 05:04:43;;;;;;;11.43;10.23;;;;;;;;;;5087285;28;20056;-61
2021/03/11 05:07:29;;;;;;;10.00;9.00;;;;;;;;;;5087221;28;20045;-61
2021/03/11 05:10:14;;;;;;;11.63;10.35;;;;;;;;;;5074249;28;20051;-61
2021/03/11 05:13:00;;;;;;;10.70;9.13;;;;;;;;;;5058837;28;20128;-61
2021/03/11 05:15:45;;;;;;;10.77;9.43;;;;;;;;;;5055613;28;20059;-61
2021/03/11 05:18:30;;;;;;;12.38;9.25;;;;;;;;;;5062916;28;20060;-61
2021/03/11 05:21:16;;;;;;;10.15;9.15;;;;;;;;;;5060197;28;20048;-61
2021/03/11 05:24:01;;;;;;;10.88;9.38;;;;;;;;;;5070653;28;20054;-61
2021/03/11 05:26:47;;;;;;;10.48;9.35;;;;;;;;;;5072720;28;20087;-61
2021/03/11 05:29:32;;;;;;;10.48;9.38;;;;;;;;;;5064720;28;20517;-62
2021/03/11 05:32:17;;;;;;;11.25;9.70;;;;;;;;;;5053977;28;20045;-61
2021/03/11 05:35:03;;;;;;;10.60;9.27;;;;;;;;;;5053547;28;20068;-61
2021/03/11 05:37:48;;;;;;;13.95;9.90;;;;;;;;;;5059817;28;20075;-61
2021/03/11 05:40:34;;;;;;;12.70;11.02;;;;;;;;;;5073520;28;20052;-61
2021/03/11 05:43:19;;;;;;;12.50;10.82;;;;;;;;;;5064873;28;20045;-62
2021/03/11 05:46:05;;;;;;;12.50;9.57;;;;;;;;;;5053115;28;20163;-62
2021/03/11 05:48:50;;;;;;;13.73;10.48;;;;;;;;;;5087027;28;20490;-62
2021/03/11 05:51:36;;;;;;;13.75;10.52;;;;;;;;;;5073232;28;20048;-62
2021/03/11 05:54:22;;;;;;;13.30;10.60;;;;;;;;;;5058013;28;20057;-61
2021/03/11 05:57:08;;;;;;;12.40;10.57;;;;;;;;;;5082905;28;20481;-62
2021/03/11 05:59:57;;;;;;;13.48;11.23;;;;;;;;;;5073314;28;20186;-62
2021/03/11 06:02:46;;;;;;;15.60;11.55;;;;;;;;;;5058421;28;20055;-62
2021/03/11 06:05:31;;;;;;;13.80;11.70;;;;;;;;;;5052775;28;20580;-62
2021/03/11 06:08:16;;;;;;;14.93;12.25;;;;;;;;;;5051882;28;20484;-62
2021/03/11 06:11:01;;;;;;;15.23;11.95;;;;;;;;;;5052362;28;20037;-62
2021/03/11 06:13:46;;;;;;;15.15;12.90;;;;;;;;;;5052960;28;20068;-62
2021/03/11 06:16:32;;;;;;;15.98;13.15;;;;;;;;;;5061554;28;20041;-62
2021/03/11 06:19:17;;;;;;;18.00;14.13;;;;;;;;;;5071272;28;20079;-62
2021/03/11 06:22:03;;;;;;;16.60;12.50;;;;;;;;;;5072173;28;20472;-62
2021/03/11 06:24:48;;;;;;;12.98;11.13;;;;;;;;;;5072663;28;20048;-62
2021/03/11 06:27:34;;;;;;;15.45;12.07;;;;;;;;;;5071120;28;20131;-62
2021/03/11 06:30:32;;;;;;;13.10;11.57;;;;;;;;;;5066526;28;20097;-62
2021/03/11 06:33:17;;;;;;;15.13;12.02;;;;;;;;;;5069432;28;20045;-62
2021/03/11 06:36:11;;;;;;;14.27;12.18;;;;;;;;;;5085471;28;20133;-62
2021/03/11 06:38:57;;;;;;;16.98;12.77;;;;;;;;;;5108249;23;20114;-62
2021/03/11 06:41:45;;;;;;;14.55;11.05;;;;;;;;;;5052367;28;20071;-63
2021/03/11 06:44:37;;;;;;;13.35;10.77;;;;;;;;;;5041346;28;20049;-62
2021/03/11 06:47:23;;;;;;;12.43;10.48;;;;;;;;;;5037320;28;20041;-63
2021/03/11 06:50:08;;;;;;;11.57;8.30;;;;;;;;;;5037209;28;20491;-62
2021/03/11 06:53:03;;;;;;;9.30;8.15;;;;;;;;;;5045252;28;20045;-63
2021/03/11 06:55:49;;;;;;;9.18;7.65;;;;;;;;;;5032318;28;20100;-62
2021/03/11 06:58:34;;;;;;;9.15;7.20;;;;;;;;;;5033326;28;20498;-63
2021/03/11 07:01:20;;;;;;;11.23;7.65;;;;;;;;;;5043472;28;20494;-62
2021/03/11 07:04:05;;;;;;;9.68;7.63;;;;;;;;;;5041138;28;20059;-62
2021/03/11 07:06:50;;;;;;;10.68;6.68;;;;;;;;;;5035404;28;20060;-62
2021/03/11 07:09:41;;;;;;;8.82;7.25;;;;;;;;;;5052025;28;20060;-63
2021/03/11 07:12:26;;;;;;;7.88;6.72;;;;;;;;;;5049231;28;20055;-62
2021/03/11 07:15:12;;;;;;;7.75;6.38;;;;;;;;;;5051741;28;20123;-63
2021/03/11 07:17:58;;;;;;;10.27;7.00;;;;;;;;;;5051386;28;20075;-64
2021/03/11 07:20:43;;;;;;;8.68;6.22;;;;;;;;;;5048133;28;20046;-63
2021/03/11 07:23:29;;;;;;;9.48;6.57;;;;;;;;;;5051903;28;20479;-63
2021/03/11 07:26:14;;;;;;;10.57;7.18;;;;;;;;;;5050090;28;20042;-62
2021/03/11 07:29:14;;;;;;;10.90;7.15;;;;;;;;;;5050609;28;20163;-62
2021/03/11 07:32:00;;;;;;;10.70;7.15;;;;;;;;;;5037068;28;20140;-62
2021/03/11 07:34:45;;;;;;;9.68;6.30;;;;;;;;;;5031668;28;20412;-62
2021/03/11 07:37:30;;;;;;;8.27;5.95;;;;;;;;;;5047069;28;20387;-63
2021/03/11 07:40:17;;;;;;;9.70;7.00;;;;;;;;;;5042393;28;20492;-62
2021/03/11 07:43:02;;;;;;;13.77;6.95;;;;;;;;;;5051589;28;20130;-62
2021/03/11 07:45:47;;;;;;;12.02;6.35;;;;;;;;;;5048482;28;20071;-63
2021/03/11 07:48:32;;;;;;;11.43;6.65;;;;;;;;;;5031936;28;20049;-63
2021/03/11 07:51:18;;;;;;;11.45;5.90;;;;;;;;;;5042476;28;20052;-62
2021/03/11 07:54:03;;;;;;;8.43;6.70;;;;;;;;;;5051623;28;20041;-62
2021/03/11 07:56:50;;;;;;;12.63;7.45;;;;;;;;;;5038457;28;20527;-62
2021/03/11 07:59:35;;;;;;;13.68;6.53;;;;;;;;;;5030671;28;20050;-63
2021/03/11 08:02:21;;;;;;;10.63;6.65;;;;;;;;;;5049671;28;20457;-63
2021/03/11 08:05:06;;;;;;;18.40;6.78;;;;;;;;;;5051212;28;20041;-62
2021/03/11 08:08:10;;;;;;;10.93;6.28;;;;;;;;;;5045816;28;20041;-63
2021/03/11 08:10:56;;;;;;;10.02;5.63;;;;;;;;;;5051486;28;20045;-62
2021/03/11 08:13:41;;;;;;;13.07;6.05;;;;;;;;;;5050870;28;20127;-62
2021/03/11 08:16:27;;;;;;;14.00;6.18;;;;;;;;;;5041609;28;20045;-63
2021/03/11 08:19:23;;;;;;;13.38;5.68;;;;;;;;;;5035076;28;20058;-63
2021/03/11 08:22:08;;;;;;;14.30;5.30;;;;;;;;;;5041636;28;20061;-63
2021/03/11 08:24:53;;;;;;;19.00;4.80;;;;;;;;;;5053775;28;20414;-62
2021/03/11 08:27:39;;;;;;;18.52;5.53;;;;;;;;;;5052427;28;20399;-62
2021/03/11 08:30:39;;;;;;;21.10;6.90;;;;;;;;;;5053187;28;20499;-64
2021/03/11 08:33:45;;;;;;;27.88;6.78;;;;;;;;;;5054936;28;20053;-63
2021/03/11 08:36:33;;;;;;;25.50;5.65;;;;;;;;;;5041221;28;20049;-63
2021/03/11 08:39:31;;;;;;;23.45;5.95;;;;;;;;;;5034803;28;20053;-63
2021/03/11 08:42:34;;;;;;;31.00;7.50;;;;;;;;;;5041950;28;20044;-63
2021/03/11 08:45:35;;;;;;;29.55;6.63;;;;;;;;;;5039459;28;20041;-63
2021/03/11 08:48:21;;;;;;;30.85;7.30;;;;;;;;;;5047555;28;20041;-63
2021/03/11 08:51:09;;;;;;;25.48;7.15;;;;;;;;;;5044879;28;20046;-63
2021/03/11 08:54:01;;;;;;;32.28;7.93;;;;;;;;;;5044382;28;20120;-63
2021/03/11 08:56:46;;;;;;;29.02;7.50;;;;;;;;;;5046320;28;20044;-64
2021/03/11 08:59:47;;;;;;;24.55;5.65;;;;;;;;;;5049404;28;20049;-64
2021/03/11 09:02:32;;;;;;;29.63;8.00;;;;;;;;;;5047780;28;20060;-63
2021/03/11 09:05:38;;;;;;;33.85;7.80;;;;;;;;;;5045042;28;20034;-64
2021/03/11 09:08:23;;;;;;;34.13;7.63;;;;;;;;;;5044302;28;20045;-64
2021/03/11 09:11:11;;;;;;;27.35;6.22;;;;;;;;;;5053757;28;20052;-63
2021/03/11 09:13:57;;;;;;;31.67;6.57;;;;;;;;;;5041250;28;20487;-63
2021/03/11 09:16:42;;;;;;;25.13;6.03;;;;;;;;;;5032465;28;20041;-63
2021/03/11 09:19:34;;;;;;;23.10;6.60;;;;;;;;;;5038282;28;20045;-64
2021/03/11 09:22:27;;;;;;;17.92;5.05;;;;;;;;;;5047798;28;20045;-64
2021/03/11 09:25:13;;;;;;;28.50;6.85;;;;;;;;;;5044167;28;20041;-63
2021/03/11 09:28:09;;;;;;;25.65;6.65;;;;;;;;;;5044277;28;20037;-63
2021/03/11 09:30:54;;;;;;;23.08;6.80;;;;;;;;;;5048664;28;20118;-64
2021/03/11 09:33:40;;;;;;;26.77;7.68;;;;;;;;;;5042101;28;20049;-63
2021/03/11 09:36:25;;;;;;;26.63;7.13;;;;;;;;;;5039852;28;20053;-63
2021/03/11 09:39:11;;;;;;;30.38;7.82;;;;;;;;;;5035553;28;20132;-63
2021/03/11 09:41:56;;;;;;;26.45;5.65;;;;;;;;;;5033533;28;20046;-63
2021/03/11 09:44:44;;;;;;;26.95;6.30;;;;;;;;;;5047166;28;20045;-63
2021/03/11 09:47:30;;;;;;;30.00;8.00;;;;;;;;;;5048813;28;20042;-64
2021/03/11 09:50:15;;;;;;;33.50;7.38;;;;;;;;;;5050277;28;20041;-63
2021/03/11 09:53:01;;;;;;;25.73;7.55;;;;;;;;;;5033199;28;20054;-64
2021/03/11 09:55:46;;;;;;;29.50;6.07;;;;;;;;;;5033530;28;20069;-64
2021/03/11 09:58:32;;;;;;;29.90;6.18;;;;;;;;;;5043021;28;20045;-63
2021/03/11 10:01:24;;;;;;;29.92;7.07;;;;;;;;;;5021752;28;20049;-62
2021/03/11 10:04:23;;;;;;;27.17;6.90;;;;;;;;;;5033607;28;20053;-62
2021/03/11 10:07:13;;;;;;;33.70;7.10;;;;;;;;;;5036078;28;20049;-63
2021/03/11 10:09:58;;;;;;;26.08;7.32;;;;;;;;;;5036267;28;20045;-63
2021/03/11 10:12:45;;;;;;;39.13;9.48;;;;;;;;;;5051564;28;20041;-63
2021/03/11 10:15:30;;;;;;;34.75;8.07;;;;;;;;;;5052616;28;20487;-63
2021/03/11 10:18:15;;;;;;;27.58;6.70;;;;;;;;;;5051329;28;20052;-63
2021/03/11 10:21:10;;;;;;;33.63;7.50;;;;;;;;;;5037496;28;20150;-63
2021/03/11 10:23:55;;;;;;;27.73;7.68;;;;;;;;;;5048065;28;20517;-62
2021/03/11 10:26:41;;;;;;;34.70;8.02;;;;;;;;;;5038667;28;20037;-65
2021/03/11 10:29:28;;;;;;;33.35;8.00;;;;;;;;;;5039687;28;20105;-63
2021/03/11 10:32:13;;;;;;;29.80;7.50;;;;;;;;;;5041488;28;20094;-65
2021/03/11 10:34:59;;;;;;;42.30;8.95;;;;;;;;;;5030902;28;20041;-62
2021/03/11 10:37:44;;;;;;;37.33;8.07;;;;;;;;;;5048200;28;20040;-63
2021/03/11 10:40:29;;;;;;;31.88;7.30;;;;;;;;;;5037319;28;20044;-64
2021/03/11 10:43:24;;;;;;;31.65;7.15;;;;;;;;;;5043605;28;20503;-62
2021/03/11 10:46:16;;;;;;;39.72;9.63;;;;;;;;;;5041597;28;20061;-64
2021/03/11 10:49:02;;;;;;;;;;;;;;;;;;5040416;28;20090;-62
2021/03/11 10:51:47;;;;;;;33.00;8.15;;;;;;;;;;5043515;28;19921;-63
2021/03/11 10:54:33;;;;;;;32.90;6.60;;;;;;;;;;5034088;28;20049;-63
2021/03/11 10:57:19;;;;;;;30.15;7.03;;;;;;;;;;5029360;28;20056;-63
2021/03/11 11:00:08;;;;;;;32.65;7.68;;;;;;;;;;5039304;28;20128;-62
2021/03/11 11:02:54;;;;;;;39.70;7.95;;;;;;;;;;5042064;28;20045;-62
2021/03/11 11:05:39;;;;;;;33.17;7.70;;;;;;;;;;5048182;28;20455;-64
2021/03/11 11:08:24;;;;;;;32.38;8.38;;;;;;;;;;5047579;28;20069;-63
2021/03/11 11:11:10;;;;;;;37.35;8.40;;;;;;;;;;5039753;28;20038;-64
2021/03/11 11:13:56;;;;;;;30.95;8.20;;;;;;;;;;5035153;28;20704;-63
2021/03/11 11:16:41;;;;;;;37.13;9.15;;;;;;;;;;5032185;28;20052;-63
2021/03/11 11:19:26;;;;;;;28.80;7.75;;;;;;;;;;5038215;28;20056;-63
2021/03/11 11:22:12;;;;;;;38.90;8.40;;;;;;;;;;5029437;28;20090;-64
2021/03/11 11:24:57;;;;;;;30.85;8.30;;;;;;;;;;5041009;28;20080;-64
2021/03/11 11:27:44;;;;;;;25.27;6.75;;;;;;;;;;5038380;28;20047;-63
2021/03/11 11:30:29;;;;;;;26.00;6.70;;;;;;;;;;5031268;28;20503;-63
2021/03/11 11:33:14;;;;;;;23.88;5.55;;;;;;;;;;5030702;28;20045;-63
2021/03/11 11:36:00;;;;;;;24.20;5.78;;;;;;;;;;5040283;28;20045;-64
2021/03/11 11:38:45;;;;;;;27.55;7.32;;;;;;;;;;5036314;28;20077;-63
2021/03/11 11:41:31;;;;;;;30.60;6.82;;;;;;;;;;5028173;28;20049;-63
2021/03/11 11:44:16;;;;;;;21.17;4.53;;;;;;;;;;5037608;28;20036;-64
2021/03/11 11:47:02;;;;;;;25.80;5.93;;;;;;;;;;5029856;28;20050;-63
2021/03/11 11:49:47;;;;;;;29.52;6.07;;;;;;;;;;5036254;28;20049;-63
2021/03/11 11:52:32;;;;;;;25.33;6.00;;;;;;;;;;5036850;28;20045;-63
2021/03/11 11:55:17;;;;;;;22.13;5.10;;;;;;;;;;5049368;28;20164;-63
2021/03/11 11:58:03;;;;;;;20.33;5.60;;;;;;;;;;5039047;28;20046;-63
2021/03/11 12:00:48;;;;;;;25.70;5.63;;;;;;;;;;5050881;28;20049;-63
2021/03/11 12:03:33;;;;;;;25.95;6.18;;;;;;;;;;5036262;28;20499;-63
2021/03/11 12:06:19;;;;;;;25.80;5.47;;;;;;;;;;5052536;28;20053;-63
2021/03/11 12:09:04;;;;;;;26.58;6.15;;;;;;;;;;5049524;28;20135;-63
2021/03/11 12:11:50;;;;;;;34.63;8.27;;;;;;;;;;5034097;28;20064;-63
2021/03/11 12:14:36;;;;;;;29.02;7.30;;;;;;;;;;5045041;28;20123;-63
2021/03/11 12:17:21;;;;;;;28.55;6.20;;;;;;;;;;5048969;28;20048;-63
2021/03/11 12:20:07;;;;;;;26.35;7.75;;;;;;;;;;5050718;28;20485;-63
2021/03/11 12:22:52;;;;;;;30.27;6.55;;;;;;;;;;5047458;28;20063;-64
2021/03/11 12:25:37;;;;;;;37.08;8.18;;;;;;;;;;5036500;28;20076;-63
2021/03/11 12:28:23;;;;;;;27.08;6.18;;;;;;;;;;5041342;28;20525;-62
2021/03/11 12:31:08;;;;;;;32.13;8.45;;;;;;;;;;5032163;28;20415;-64
2021/03/11 12:33:53;;;;;;;29.77;7.15;;;;;;;;;;5040699;28;20052;-63
2021/03/11 12:36:39;;;;;;;37.70;8.30;;;;;;;;;;5051757;28;20045;-63
2021/03/11 12:39:24;;;;;;;27.63;7.18;;;;;;;;;;5046812;28;20049;-62
2021/03/11 12:42:09;;;;;;;30.95;6.65;;;;;;;;;;5052214;28;20076;-63
2021/03/11 12:44:54;;;;;;;25.02;6.18;;;;;;;;;;5033359;28;20049;-64
2021/03/11 12:47:40;;;;;;;30.17;7.10;;;;;;;;;;5037219;28;20079;-63
2021/03/11 12:50:25;;;;;;;26.95;5.60;;;;;;;;;;5040667;28;20045;-62
2021/03/11 12:53:10;;;;;;;28.42;6.10;;;;;;;;;;5045672;28;20050;-63
2021/03/11 12:55:55;;;;;;;24.73;5.93;;;;;;;;;;5036466;28;20041;-64
2021/03/11 12:58:41;;;;;;;25.52;5.63;;;;;;;;;;5036473;28;20045;-63
2021/03/11 13:01:26;;;;;;;28.20;6.13;;;;;;;;;;5050390;28;20041;-63
2021/03/11 13:04:11;;;;;;;23.52;5.97;;;;;;;;;;5040151;28;20049;-63
2021/03/11 13:06:57;;;;;;;31.52;6.55;;;;;;;;;;5083676;23;20057;-62
2021/03/11 13:09:42;;;;;;;27.23;7.70;;;;;;;;;;5044294;28;20115;-62
2021/03/11 13:12:28;;;;;;;21.02;5.13;;;;;;;;;;5046288;28;20119;-62
2021/03/11 13:15:13;;;;;;;33.92;5.95;;;;;;;;;;5050916;28;20510;-62
2021/03/11 13:17:58;;;;;;;20.73;5.50;;;;;;;;;;5045575;28;20228;-62
2021/03/11 13:20:44;;;;;;;24.45;5.80;;;;;;;;;;5031992;28;20045;-62
2021/03/11 13:23:29;;;;;;;26.25;7.60;;;;;;;;;;5030542;28;20063;-63
2021/03/11 13:26:17;;;;;;;20.27;5.18;;;;;;;;;;5032910;28;20049;-63
2021/03/11 13:29:03;;;;;;;24.95;6.07;;;;;;;;;;5042410;28;20080;-63
2021/03/11 13:31:48;;;;;;;25.65;4.93;;;;;;;;;;5038362;28;20061;-63
2021/03/11 13:34:33;;;;;;;25.60;5.93;;;;;;;;;;5045972;28;20045;-63
2021/03/11 13:37:18;;;;;;;23.10;4.57;;;;;;;;;;5045322;28;20045;-63
2021/03/11 13:40:04;;;;;;;24.98;6.18;;;;;;;;;;5031741;28;20068;-63
2021/03/11 13:42:49;;;;;;;27.48;6.00;;;;;;;;;;5047991;28;20053;-62
2021/03/11 13:45:34;;;;;;;33.38;6.75;;;;;;;;;;5048898;28;20132;-61
2021/03/11 13:48:19;;;;;;;28.88;7.32;;;;;;;;;;5048531;28;20055;-61
2021/03/11 13:51:06;;;;;;;25.88;4.65;;;;;;;;;;5051552;28;20041;-61
2021/03/11 13:53:51;;;;;;;20.35;4.75;;;;;;;;;;5047897;28;20440;-62
2021/03/11 13:56:37;;;;;;;21.05;4.80;;;;;;;;;;5035340;28;20049;-62
2021/03/11 13:59:22;;;;;;;27.25;6.05;;;;;;;;;;5044605;28;20411;-62
2021/03/11 14:02:08;;;;;;;23.10;5.95;;;;;;;;;;5039959;28;20075;-62
2021/03/11 14:04:53;;;;;;;21.27;5.07;;;;;;;;;;5031498;28;20487;-62
2021/03/11 14:07:38;;;;;;;23.50;5.00;;;;;;;;;;5050022;28;20124;-62
2021/03/11 14:10:23;;;;;;;20.15;4.88;;;;;;;;;;5053011;28;20197;-62
2021/03/11 14:13:09;;;;;;;24.70;4.47;;;;;;;;;;5060346;28;20045;-64
2021/03/11 14:15:54;;;;;;;20.15;5.10;;;;;;;;;;5034020;28;20412;-64
2021/03/11 14:18:39;;;;;;;26.50;6.93;;;;;;;;;;5034167;28;20084;-64
2021/03/11 14:21:24;;;;;;;23.27;5.20;;;;;;;;;;5038307;28;20491;-64
2021/03/11 14:24:10;;;;;;;27.55;5.25;;;;;;;;;;5047192;28;20041;-63
2021/03/11 14:26:55;;;;;;;22.42;5.38;;;;;;;;;;5051115;28;20468;-63
2021/03/11 14:29:40;;;;;;;20.05;4.65;;;;;;;;;;5031876;28;20045;-63
2021/03/11 14:32:26;;;;;;;20.77;4.07;;;;;;;;;;5031532;28;20041;-63
2021/03/11 14:35:12;;;;;;;17.98;3.40;;;;;;;;;;5050033;28;20124;-63
2021/03/11 14:37:57;;;;;;;17.00;4.38;;;;;;;;;;5042622;28;20037;-63
2021/03/11 14:40:42;;;;;;;13.35;3.35;;;;;;;;;;5034373;28;20127;-63
2021/03/11 14:43:28;;;;;;;20.15;4.18;;;;;;;;;;5040428;28;20053;-63
2021/03/11 14:46:13;;;;;;;17.05;3.58;;;;;;;;;;5049981;28;20111;-64
2021/03/11 14:48:58;;;;;;;15.90;3.83;;;;;;;;;;5036847;28;20057;-64
2021/03/11 14:51:46;;;;;;;21.20;5.15;;;;;;;;;;5045369;28;20061;-63
2021/03/11 14:54:31;;;;;;;17.90;3.55;;;;;;;;;;5049374;28;20085;-64
2021/03/11 14:57:17;;;;;;;20.98;5.05;;;;;;;;;;5037728;28;20045;-63
2021/03/11 15:00:02;;;;;;;22.48;4.72;;;;;;;;;;5034318;28;20038;-63
2021/03/11 15:02:48;;;;;;;14.43;4.53;;;;;;;;;;5031962;28;20052;-63
2021/03/11 15:05:34;;;;;;;18.90;3.95;;;;;;;;;;5036612;28;20038;-64
2021/03/11 15:08:19;;;;;;;18.75;4.65;;;;;;;;;;5044217;28;20128;-63
2021/03/11 15:11:06;;;;;;;15.02;4.13;;;;;;;;;;5044821;28;20046;-64
2021/03/11 15:13:52;;;;;;;24.83;5.43;;;;;;;;;;5029432;28;20431;-62
2021/03/11 15:16:37;;;;;;;16.50;3.88;;;;;;;;;;5042196;28;20045;-62
2021/03/11 15:19:22;;;;;;;17.55;3.67;;;;;;;;;;5034094;28;20042;-62
2021/03/11 15:22:07;;;;;;;19.95;2.83;;;;;;;;;;5036365;28;20057;-62
2021/03/11 15:24:53;;;;;;;20.40;3.10;;;;;;;;;;5026484;28;20095;-62
2021/03/11 15:27:38;;;;;;;18.70;2.70;;;;;;;;;;5039083;28;20049;-63
2021/03/11 15:30:24;;;;;;;9.90;2.63;;;;;;;;;;5029674;28;20060;-62
2021/03/11 15:33:09;;;;;;;16.27;2.88;;;;;;;;;;5031288;28;20056;-62
2021/03/11 15:35:54;;;;;;;14.77;2.47;;;;;;;;;;5016433;28;20064;-62
2021/03/11 15:38:42;;;;;;;16.48;3.58;;;;;;;;;;5041838;28;20037;-62
2021/03/11 15:41:27;;;;;;;12.50;2.35;;;;;;;;;;5050834;28;20391;-62
2021/03/11 15:44:12;;;;;;;10.93;2.00;;;;;;;;;;5049020;28;20048;-64
2021/03/11 15:46:57;;;;;;;10.18;2.00;;;;;;;;;;5049713;28;20037;-64
2021/03/11 15:49:43;;;;;;;15.75;2.50;;;;;;;;;;5049015;28;20045;-64
2021/03/11 15:52:29;;;;;;;7.97;2.30;;;;;;;;;;5032170;28;20045;-64
2021/03/11 15:55:14;;;;;;;9.57;2.00;;;;;;;;;;5036483;28;20048;-64
2021/03/11 15:58:00;;;;;;;10.57;2.35;;;;;;;;;;5041862;28;20041;-64
2021/03/11 16:00:45;;;;;;;13.52;1.90;;;;;;;;;;5036298;28;20049;-64
2021/03/11 16:03:31;;;;;;;12.15;2.13;;;;;;;;;;5048860;28;20099;-64
2021/03/11 16:06:16;;;;;;;11.63;1.92;;;;;;;;;;5043127;28;20033;-64
2021/03/11 16:09:01;;;;;;;7.95;1.95;;;;;;;;;;5049643;28;20049;-64
2021/03/11 16:11:46;;;;;;;11.27;2.05;;;;;;;;;;5042906;28;20045;-64
2021/03/11 16:14:34;;;;;;;10.15;1.98;;;;;;;;;;5065394;28;20048;-63
2021/03/11 16:17:19;;;;;;;12.70;2.50;;;;;;;;;;5035326;28;20041;-63
2021/03/11 16:20:05;;;;;;;13.80;2.22;;;;;;;;;;5041960;28;20046;-63